Nearby METAR Reports

 

KORD - Chicago O'hare, Illinois, USA
Distance from station: ESE 10mi, 16km
Updated: Tue, 21-Aug-2018 6:51pm CDT
Mostly cloudy
Mostly cloudy
 Wind from NNW
Wind: NNW 12 mph , 19 km/h
Temperature: 75°F , 24°C
Dew Point: 63°F , 17°C
Humidity: 65%
Barometer: 29.94 inHg , 1013.9 hPa
Clouds: Mostly cloudy
Visibility: 10 miles , 16 km
Cloud details: Few Clouds 3200 ft
Partly cloudy 4400 ft
Mostly cloudy 25000 ft
2018/08/21 23:51 KORD 212351Z 33010KT 10SM FEW032 SCT044 BKN250 24/17 A2994 RMK AO2 SLP135 T02390167 10256 20222 53012
KDPA - Chicago/Dupage, Illinois, USA
Distance from station: SW 11mi, 18km
Updated: Tue, 21-Aug-2018 6:52pm CDT
Haze, Clear
Haze, Clear
 Wind from NW
Wind: NW 14 mph , 22 km/h
Temperature: 73°F , 23°C
Dew Point: 63°F , 17°C
Humidity: 69%
Barometer: 29.96 inHg , 1014.6 hPa
Summary: Haze
Clouds: Clear
Visibility: 5 miles , 8 km
2018/08/21 23:52 KDPA 212352Z 32012KT 5SM HZ CLR 23/17 A2996 RMK AO2 RAE00 SLP140 P0000 60000 T02330172 10256 20217 53012
 
KPWK - Palwaukee, Illinois, USA
Distance from station: ENE 12mi, 19km
Updated: Tue, 21-Aug-2018 6:52pm CDT
Mostly cloudy
Mostly cloudy
 Wind from NE
Wind: NE 8 mph , 13 km/h
Temperature: 73°F , 23°C
Dew Point: 64°F , 18°C
Humidity: 74%
Barometer: 29.96 inHg , 1014.6 hPa
Clouds: Mostly cloudy
Visibility: 10 miles , 16 km
Cloud details: Mostly cloudy 3300 ft
2018/08/21 23:52 KPWK 212352Z 04007KT 10SM BKN033 23/18 A2996 RMK AO2 SLP140 T02330178 10261 20233 53012
KMDW - Chicago, Illinois, USA
Distance from station: SE 26mi, 41km
Updated: Tue, 21-Aug-2018 6:53pm CDT
Mostly cloudy
Mostly cloudy
 Wind from N
Wind: N 8 mph , 13 km/h
Temperature: 73°F , 23°C
Dew Point: 66°F , 19°C
Humidity: 78%
Barometer: 29.94 inHg , 1013.9 hPa
Clouds: Mostly cloudy
Visibility: 9 miles , 14 km
Cloud details: Few Clouds 3000 ft
Partly cloudy 9500 ft
Mostly cloudy 15000 ft
Mostly cloudy 25000 ft
2018/08/21 23:53 KMDW 212353Z 36007KT 9SM FEW030 SCT095 BKN150 BKN250 23/19 A2994 RMK AO2 SLP132 T02330189 10267 20228 53016
 
KARR - Chicago/Aurora, Illinois, USA
Distance from station: SW 27mi, 43km
Updated: Tue, 21-Aug-2018 6:52pm CDT
Light rain, Mist, Mostly cloudy
Light rain, Mist, Mostly cloudy
 Wind from W
Wind: W 6 mph , 9 km/h, Gust: 23 mph , 37 km/h
Temperature: 72°F , 22°C
Dew Point: 66°F , 19°C
Humidity: 83%
Barometer: 29.97 inHg , 1014.9 hPa
Summary: Light rain, Mist
Clouds: Mostly cloudy
Visibility: 3 miles , 5 km
Cloud details: Mostly cloudy 3000 ft
Mostly cloudy 3700 ft
Mostly cloudy 4700 ft
2018/08/21 23:52 KARR 212352Z 27005G20KT 3SM -RA BR BKN030 BKN037 BKN047 22/19 A2997 RMK AO2 RAB42 SLP146 P0007 60007 T02170194 10256 20217 53012
KUGN - Waukegan, Illinois, USA
Distance from station: NNE 29mi, 47km
Updated: Tue, 21-Aug-2018 6:55pm CDT
Overcast
Overcast
 Wind from N
Wind: N 6 mph , 9 km/h
Temperature: 72°F , 22°C
Dew Point: 61°F , 16°C
Humidity: 69%
Barometer: 29.95 inHg , 1014.2 hPa
Clouds: Overcast
Visibility: 7 miles , 11 km
Cloud details: Mostly cloudy 2700 ft
Overcast 3600 ft
2018/08/21 23:55 KUGN 212355Z 01005KT 7SM BKN027 OVC036 22/16 A2995 RMK AO2 SLP133 T02170161 10244 20217 51011
 
KLOT - Romeoville/Chi, Illinois, USA
Distance from station: S 30mi, 49km
Updated: Tue, 21-Aug-2018 7:15pm CDT
Mostly cloudy
Mostly cloudy
 Wind from NNW
Wind: NNW 12 mph , 19 km/h
Temperature: 73°F , 23°C
Dew Point: 64°F , 18°C
Humidity: 74%
Barometer: 29.97 inHg , 1014.9 hPa
Clouds: Mostly cloudy
Visibility: 10 miles , 16 km
Cloud details: Partly cloudy 3200 ft
Mostly cloudy 4000 ft
Mostly cloudy 5000 ft
2018/08/22 00:15 KLOT 220015Z AUTO 33010KT 10SM SCT032 BKN040 BKN050 23/18 A2997 RMK AO2 T02290180
KDKB - De Kalb, Illinois, USA
Distance from station: WSW 31mi, 50km
Updated: Tue, 21-Aug-2018 7:15pm CDT
Mostly cloudy
Mostly cloudy
 Wind from NW
Wind: NW 13 mph , 20 km/h, Gust: 21 mph , 33 km/h
Temperature: 70°F , 21°C
Dew Point: 63°F , 17°C
Humidity: 78%
Barometer: 30.02 inHg , 1016.6 hPa
Clouds: Mostly cloudy
Visibility: 10 miles , 16 km
Cloud details: Mostly cloudy 2700 ft
Mostly cloudy 3200 ft
2018/08/22 00:15 KDKB 220015Z AUTO 32011G18KT 10SM BKN027 BKN032 21/17 A3002 RMK AO2 T02080169
 
KJOT - Joliet, Illinois, USA
Distance from station: S 36mi, 58km
Updated: Tue, 21-Aug-2018 7:15pm CDT
Overcast
Overcast
 Wind from NW
Wind: NW 3 mph , 6 km/h
Temperature: 77°F , 25°C
Dew Point: 66°F , 19°C
Humidity: 69%
Barometer: 29.97 inHg , 1014.9 hPa
Clouds: Overcast
Visibility: 10 miles , 16 km
Cloud details: Partly cloudy 4100 ft
Mostly cloudy 4700 ft
Overcast 6000 ft
2018/08/22 00:15 KJOT 220015Z AUTO 32003KT 10SM SCT041 BKN047 OVC060 25/19 A2997 RMK AO2 T02450185
KENW - Kenosha, Wisconsin, USA
Distance from station: NNE 40mi, 64km
Updated: Tue, 21-Aug-2018 6:53pm CDT
Mostly cloudy
Mostly cloudy
 Wind from N
Wind: N 3 mph , 6 km/h
Temperature: 72°F , 22°C
Dew Point: 66°F , 19°C
Humidity: 83%
Barometer: 29.96 inHg , 1014.6 hPa
Clouds: Mostly cloudy
Visibility: 9 miles , 14 km
Cloud details: Mostly cloudy 2700 ft
Mostly cloudy 3500 ft
2018/08/21 23:53 KENW 212353Z 35003KT 9SM BKN027 BKN035 22/19 A2996 RMK AO2 RAB43E52 SLP143 P0000 60004 T02170189 10250 20194 53012
 
KC09 - Morris-Washburn, Illinois, USA
Distance from station: SSW 45mi, 72km
Updated: Tue, 21-Aug-2018 7:15pm CDT
Overcast
Overcast
 Wind from N
Wind: N 5 mph , 7 km/h
Temperature: 73°F , 23°C
Dew Point: 66°F , 19°C
Humidity: 78%
Barometer: 29.97 inHg , 1014.9 hPa
Clouds: Overcast
Visibility: 10 miles , 16 km
Cloud details: Mostly cloudy 3800 ft
Overcast 4900 ft
2018/08/22 00:15 KC09 220015Z AUTO 35004KT 10SM BKN038 OVC049 23/19 A2997 RMK AO2 T02320190
KBUU - Burlington, Wisconsin, USA
Distance from station: NNW 46mi, 73km
Updated: Tue, 21-Aug-2018 6:55pm CDT
Mostly cloudy
Mostly cloudy
 Wind from NNW
Wind: NNW 13 mph , 20 km/h, Gust: 25 mph , 41 km/h
Temperature: 70°F , 21°C
Dew Point: 63°F , 17°C
Humidity: 78%
Barometer: 29.99 inHg , 1015.6 hPa
Clouds: Mostly cloudy
Visibility: 10 miles , 16 km
Cloud details: Partly cloudy 2700 ft
Partly cloudy 3400 ft
Mostly cloudy 3900 ft
2018/08/21 23:55 KBUU 212355Z AUTO 33011G22KT 10SM SCT027 SCT034 BKN039 21/17 A2999 RMK AO2 T02110166 10242 20211
 
KGYY - Gary Regional, Indiana, USA
Distance from station: SE 46mi, 74km
Updated: Tue, 21-Aug-2018 6:45pm CDT
Mostly cloudy
Mostly cloudy
 Wind from N
Wind: N 12 mph , 19 km/h, Gust: 23 mph , 37 km/h
Temperature: 73°F , 23°C
Dew Point: 66°F , 19°C
Humidity: 78%
Barometer: 29.95 inHg , 1014.2 hPa
Clouds: Mostly cloudy
Visibility: 10 miles , 16 km
Cloud details: Partly cloudy 1800 ft
Partly cloudy 9000 ft
Mostly cloudy 25000 ft
2018/08/21 23:45 KGYY 212345Z 35010G20KT 10SM SCT018 SCT090 BKN250 23/19 A2995
KIGQ - Chicago/Lansing, Illinois, USA
Distance from station: SE 46mi, 74km
Updated: Tue, 21-Aug-2018 7:15pm CDT
Partly cloudy
Partly cloudy
 Wind from NNE
Wind: NNE 6 mph , 9 km/h
Temperature: 72°F , 22°C
Dew Point: 64°F , 18°C
Humidity: 78%
Barometer: 29.96 inHg , 1014.6 hPa
Clouds: Partly cloudy
Visibility: 10 miles , 16 km
Cloud details: Partly cloudy 4000 ft
Partly cloudy 9500 ft
2018/08/22 00:15 KIGQ 220015Z AUTO 02005KT 10SM SCT040 SCT095 22/18 A2996 RMK AO2 T02160176